sensor_id;sensor_type;location;lat;lon;timestamp;P1;durP1;ratioP1;P2;durP2;ratioP2
74620;SDS011;64861;47.546;19.254;2022-12-16T00:01:35;16.08;;;4.53;;
74620;SDS011;64861;47.546;19.254;2022-12-16T00:04:01;10.60;;;4.40;;
74620;SDS011;64861;47.546;19.254;2022-12-16T00:06:28;12.23;;;4.68;;
74620;SDS011;64861;47.546;19.254;2022-12-16T00:08:55;10.48;;;4.10;;
74620;SDS011;64861;47.546;19.254;2022-12-16T00:11:21;10.73;;;4.18;;
74620;SDS011;64861;47.546;19.254;2022-12-16T00:13:46;9.82;;;3.90;;
74620;SDS011;64861;47.546;19.254;2022-12-16T00:16:13;11.65;;;4.13;;
74620;SDS011;64861;47.546;19.254;2022-12-16T00:18:41;10.43;;;3.92;;
74620;SDS011;64861;47.546;19.254;2022-12-16T00:21:07;12.38;;;4.40;;
74620;SDS011;64861;47.546;19.254;2022-12-16T00:23:33;9.20;;;4.22;;
74620;SDS011;64861;47.546;19.254;2022-12-16T00:26:00;10.32;;;4.38;;
74620;SDS011;64861;47.546;19.254;2022-12-16T00:28:26;9.95;;;3.92;;
74620;SDS011;64861;47.546;19.254;2022-12-16T00:30:52;10.60;;;4.05;;
74620;SDS011;64861;47.546;19.254;2022-12-16T00:33:19;9.52;;;4.35;;
74620;SDS011;64861;47.546;19.254;2022-12-16T00:35:46;8.75;;;4.38;;
74620;SDS011;64861;47.546;19.254;2022-12-16T00:38:12;8.32;;;3.90;;
74620;SDS011;64861;47.546;19.254;2022-12-16T00:40:38;9.05;;;4.20;;
74620;SDS011;64861;47.546;19.254;2022-12-16T00:43:04;10.23;;;3.83;;
74620;SDS011;64861;47.546;19.254;2022-12-16T00:45:29;10.68;;;4.13;;
74620;SDS011;64861;47.546;19.254;2022-12-16T00:47:55;9.43;;;3.58;;
74620;SDS011;64861;47.546;19.254;2022-12-16T00:50:20;9.82;;;3.95;;
74620;SDS011;64861;47.546;19.254;2022-12-16T00:52:46;11.18;;;4.07;;
74620;SDS011;64861;47.546;19.254;2022-12-16T00:55:12;7.93;;;3.70;;
74620;SDS011;64861;47.546;19.254;2022-12-16T00:57:38;9.60;;;4.13;;
74620;SDS011;64861;47.546;19.254;2022-12-16T01:00:04;8.93;;;3.85;;
74620;SDS011;64861;47.546;19.254;2022-12-16T01:02:31;9.65;;;3.55;;
74620;SDS011;64861;47.546;19.254;2022-12-16T01:04:56;8.00;;;3.65;;
74620;SDS011;64861;47.546;19.254;2022-12-16T01:07:22;8.75;;;3.80;;
74620;SDS011;64861;47.546;19.254;2022-12-16T01:09:47;8.77;;;3.72;;
74620;SDS011;64861;47.546;19.254;2022-12-16T01:12:13;6.13;;;3.33;;
74620;SDS011;64861;47.546;19.254;2022-12-16T01:14:38;9.95;;;3.90;;
74620;SDS011;64861;47.546;19.254;2022-12-16T01:17:03;8.45;;;3.72;;
74620;SDS011;64861;47.546;19.254;2022-12-16T01:19:29;7.65;;;3.28;;
74620;SDS011;64861;47.546;19.254;2022-12-16T01:21:54;10.23;;;3.35;;
74620;SDS011;64861;47.546;19.254;2022-12-16T01:24:20;7.50;;;3.67;;
74620;SDS011;64861;47.546;19.254;2022-12-16T01:26:45;9.05;;;3.60;;
74620;SDS011;64861;47.546;19.254;2022-12-16T01:29:11;6.95;;;3.22;;
74620;SDS011;64861;47.546;19.254;2022-12-16T01:31:36;7.47;;;3.00;;
74620;SDS011;64861;47.546;19.254;2022-12-16T01:34:02;7.43;;;3.22;;
74620;SDS011;64861;47.546;19.254;2022-12-16T01:36:28;12.15;;;3.50;;
74620;SDS011;64861;47.546;19.254;2022-12-16T01:38:53;8.88;;;3.25;;
74620;SDS011;64861;47.546;19.254;2022-12-16T01:41:18;8.45;;;3.50;;
74620;SDS011;64861;47.546;19.254;2022-12-16T01:43:44;7.75;;;3.78;;
74620;SDS011;64861;47.546;19.254;2022-12-16T01:48:52;6.53;;;3.28;;
74620;SDS011;64861;47.546;19.254;2022-12-16T01:51:26;6.27;;;3.50;;
74620;SDS011;64861;47.546;19.254;2022-12-16T01:53:56;5.85;;;3.20;;
74620;SDS011;64861;47.546;19.254;2022-12-16T01:56:34;7.93;;;3.35;;
74620;SDS011;64861;47.546;19.254;2022-12-16T01:59:03;8.40;;;3.58;;
74620;SDS011;64861;47.546;19.254;2022-12-16T02:01:29;7.05;;;3.00;;
74620;SDS011;64861;47.546;19.254;2022-12-16T02:03:55;8.25;;;3.53;;
74620;SDS011;64861;47.546;19.254;2022-12-16T02:06:27;8.65;;;3.03;;
74620;SDS011;64861;47.546;19.254;2022-12-16T02:08:54;9.07;;;3.25;;
74620;SDS011;64861;47.546;19.254;2022-12-16T02:17:32;7.00;;;2.90;;
74620;SDS011;64861;47.546;19.254;2022-12-16T02:31:32;9.32;;;2.97;;
74620;SDS011;64861;47.546;19.254;2022-12-16T02:34:20;8.27;;;2.58;;
74620;SDS011;64861;47.546;19.254;2022-12-16T02:36:53;8.05;;;2.50;;
74620;SDS011;64861;47.546;19.254;2022-12-16T02:39:41;6.93;;;2.92;;
74620;SDS011;64861;47.546;19.254;2022-12-16T02:42:13;9.43;;;2.83;;
74620;SDS011;64861;47.546;19.254;2022-12-16T02:47:44;7.80;;;2.63;;
74620;SDS011;64861;47.546;19.254;2022-12-16T02:50:17;5.82;;;2.60;;
74620;SDS011;64861;47.546;19.254;2022-12-16T02:52:46;7.15;;;2.80;;
74620;SDS011;64861;47.546;19.254;2022-12-16T02:55:13;10.52;;;3.00;;
74620;SDS011;64861;47.546;19.254;2022-12-16T03:05:28;6.28;;;2.33;;
74620;SDS011;64861;47.546;19.254;2022-12-16T03:10:26;6.75;;;2.55;;
74620;SDS011;64861;47.546;19.254;2022-12-16T03:12:55;5.07;;;2.20;;
74620;SDS011;64861;47.546;19.254;2022-12-16T03:15:24;6.50;;;2.42;;
74620;SDS011;64861;47.546;19.254;2022-12-16T03:17:52;5.93;;;2.58;;
74620;SDS011;64861;47.546;19.254;2022-12-16T03:20:31;5.97;;;2.50;;
74620;SDS011;64861;47.546;19.254;2022-12-16T03:23:01;8.18;;;2.30;;
74620;SDS011;64861;47.546;19.254;2022-12-16T03:25:33;5.05;;;2.10;;
74620;SDS011;64861;47.546;19.254;2022-12-16T03:28:05;5.32;;;2.50;;
74620;SDS011;64861;47.546;19.254;2022-12-16T03:30:37;3.95;;;2.05;;
74620;SDS011;64861;47.546;19.254;2022-12-16T03:33:11;5.85;;;2.40;;
74620;SDS011;64861;47.546;19.254;2022-12-16T03:35:44;4.20;;;2.08;;
74620;SDS011;64861;47.546;19.254;2022-12-16T03:38:15;5.68;;;2.25;;
74620;SDS011;64861;47.546;19.254;2022-12-16T03:40:42;4.35;;;2.20;;
74620;SDS011;64861;47.546;19.254;2022-12-16T03:43:12;4.85;;;2.40;;
74620;SDS011;64861;47.546;19.254;2022-12-16T03:45:39;5.30;;;2.05;;
74620;SDS011;64861;47.546;19.254;2022-12-16T03:48:07;4.82;;;2.15;;
74620;SDS011;64861;47.546;19.254;2022-12-16T03:50:35;4.95;;;2.05;;
74620;SDS011;64861;47.546;19.254;2022-12-16T03:53:01;6.95;;;2.05;;
74620;SDS011;64861;47.546;19.254;2022-12-16T03:55:27;4.18;;;1.98;;
74620;SDS011;64861;47.546;19.254;2022-12-16T03:57:53;5.53;;;2.15;;
74620;SDS011;64861;47.546;19.254;2022-12-16T04:00:19;4.05;;;1.98;;
74620;SDS011;64861;47.546;19.254;2022-12-16T04:02:45;4.13;;;1.85;;
74620;SDS011;64861;47.546;19.254;2022-12-16T04:05:11;5.13;;;2.30;;
74620;SDS011;64861;47.546;19.254;2022-12-16T04:07:37;3.75;;;2.00;;
74620;SDS011;64861;47.546;19.254;2022-12-16T04:10:02;4.25;;;2.10;;
74620;SDS011;64861;47.546;19.254;2022-12-16T04:12:29;4.22;;;1.92;;
74620;SDS011;64861;47.546;19.254;2022-12-16T04:15:33;6.28;;;2.20;;
74620;SDS011;64861;47.546;19.254;2022-12-16T04:18:17;4.47;;;2.03;;
74620;SDS011;64861;47.546;19.254;2022-12-16T04:21:02;5.82;;;2.00;;
74620;SDS011;64861;47.546;19.254;2022-12-16T04:23:50;3.97;;;1.80;;
74620;SDS011;64861;47.546;19.254;2022-12-16T04:26:37;5.68;;;2.00;;
74620;SDS011;64861;47.546;19.254;2022-12-16T04:29:21;5.22;;;2.20;;
74620;SDS011;64861;47.546;19.254;2022-12-16T04:31:48;3.75;;;1.75;;
74620;SDS011;64861;47.546;19.254;2022-12-16T04:34:14;3.97;;;1.70;;
74620;SDS011;64861;47.546;19.254;2022-12-16T04:37:00;3.65;;;1.75;;
74620;SDS011;64861;47.546;19.254;2022-12-16T04:39:45;4.22;;;1.65;;
74620;SDS011;64861;47.546;19.254;2022-12-16T04:42:30;3.67;;;1.75;;
74620;SDS011;64861;47.546;19.254;2022-12-16T04:45:15;4.05;;;1.90;;
74620;SDS011;64861;47.546;19.254;2022-12-16T04:47:59;3.95;;;1.70;;
74620;SDS011;64861;47.546;19.254;2022-12-16T04:50:44;3.10;;;1.67;;
74620;SDS011;64861;47.546;19.254;2022-12-16T04:53:28;3.75;;;1.90;;
74620;SDS011;64861;47.546;19.254;2022-12-16T04:56:12;3.67;;;1.75;;
74620;SDS011;64861;47.546;19.254;2022-12-16T04:58:57;4.28;;;1.83;;
74620;SDS011;64861;47.546;19.254;2022-12-16T05:01:41;3.53;;;1.67;;
74620;SDS011;64861;47.546;19.254;2022-12-16T05:04:25;3.35;;;1.70;;
74620;SDS011;64861;47.546;19.254;2022-12-16T05:07:09;4.22;;;1.60;;
74620;SDS011;64861;47.546;19.254;2022-12-16T05:09:53;2.50;;;1.30;;
74620;SDS011;64861;47.546;19.254;2022-12-16T05:12:37;2.53;;;1.45;;
74620;SDS011;64861;47.546;19.254;2022-12-16T05:15:21;4.60;;;1.98;;
74620;SDS011;64861;47.546;19.254;2022-12-16T05:18:12;4.35;;;1.77;;
74620;SDS011;64861;47.546;19.254;2022-12-16T05:20:58;3.03;;;1.33;;
74620;SDS011;64861;47.546;19.254;2022-12-16T05:23:44;3.05;;;1.60;;
74620;SDS011;64861;47.546;19.254;2022-12-16T05:26:28;3.25;;;1.55;;
74620;SDS011;64861;47.546;19.254;2022-12-16T05:29:12;4.07;;;1.70;;
74620;SDS011;64861;47.546;19.254;2022-12-16T05:31:56;4.10;;;1.50;;
74620;SDS011;64861;47.546;19.254;2022-12-16T05:34:40;3.10;;;1.45;;
74620;SDS011;64861;47.546;19.254;2022-12-16T05:37:24;3.55;;;1.63;;
74620;SDS011;64861;47.546;19.254;2022-12-16T05:40:09;4.50;;;1.60;;
74620;SDS011;64861;47.546;19.254;2022-12-16T05:42:54;3.15;;;1.33;;
74620;SDS011;64861;47.546;19.254;2022-12-16T05:45:38;4.20;;;1.40;;
74620;SDS011;64861;47.546;19.254;2022-12-16T05:48:22;3.03;;;1.58;;
74620;SDS011;64861;47.546;19.254;2022-12-16T05:51:06;3.38;;;1.50;;
74620;SDS011;64861;47.546;19.254;2022-12-16T05:53:50;5.47;;;1.60;;
74620;SDS011;64861;47.546;19.254;2022-12-16T05:56:34;2.92;;;1.45;;
74620;SDS011;64861;47.546;19.254;2022-12-16T05:59:18;3.00;;;1.55;;
74620;SDS011;64861;47.546;19.254;2022-12-16T06:02:02;3.55;;;1.58;;
74620;SDS011;64861;47.546;19.254;2022-12-16T06:04:47;2.08;;;1.20;;
74620;SDS011;64861;47.546;19.254;2022-12-16T06:07:31;4.93;;;1.60;;
74620;SDS011;64861;47.546;19.254;2022-12-16T06:10:15;2.58;;;1.40;;
74620;SDS011;64861;47.546;19.254;2022-12-16T06:12:59;3.53;;;1.30;;
74620;SDS011;64861;47.546;19.254;2022-12-16T06:15:44;2.72;;;1.30;;
74620;SDS011;64861;47.546;19.254;2022-12-16T06:18:28;2.70;;;1.45;;
74620;SDS011;64861;47.546;19.254;2022-12-16T06:21:12;5.00;;;1.60;;
74620;SDS011;64861;47.546;19.254;2022-12-16T06:23:56;4.05;;;1.60;;
74620;SDS011;64861;47.546;19.254;2022-12-16T06:26:40;6.47;;;1.50;;
74620;SDS011;64861;47.546;19.254;2022-12-16T06:29:24;2.92;;;1.55;;
74620;SDS011;64861;47.546;19.254;2022-12-16T06:32:25;6.18;;;1.60;;
74620;SDS011;64861;47.546;19.254;2022-12-16T06:35:09;5.82;;;1.42;;
74620;SDS011;64861;47.546;19.254;2022-12-16T06:37:53;6.85;;;1.48;;
74620;SDS011;64861;47.546;19.254;2022-12-16T06:40:37;3.92;;;1.80;;
74620;SDS011;64861;47.546;19.254;2022-12-16T06:43:21;5.43;;;1.75;;
74620;SDS011;64861;47.546;19.254;2022-12-16T06:46:05;6.30;;;1.70;;
74620;SDS011;64861;47.546;19.254;2022-12-16T06:48:49;6.20;;;1.65;;
74620;SDS011;64861;47.546;19.254;2022-12-16T06:51:34;7.10;;;1.60;;
74620;SDS011;64861;47.546;19.254;2022-12-16T06:54:18;9.25;;;1.50;;
74620;SDS011;64861;47.546;19.254;2022-12-16T06:57:02;3.70;;;1.65;;
74620;SDS011;64861;47.546;19.254;2022-12-16T06:59:46;3.60;;;1.60;;
74620;SDS011;64861;47.546;19.254;2022-12-16T07:02:30;8.48;;;1.92;;
74620;SDS011;64861;47.546;19.254;2022-12-16T07:05:15;7.18;;;2.20;;
74620;SDS011;64861;47.546;19.254;2022-12-16T07:07:59;10.15;;;1.55;;
74620;SDS011;64861;47.546;19.254;2022-12-16T07:10:43;9.77;;;1.67;;
74620;SDS011;64861;47.546;19.254;2022-12-16T07:13:27;7.85;;;1.60;;
74620;SDS011;64861;47.546;19.254;2022-12-16T07:16:11;9.88;;;2.20;;
74620;SDS011;64861;47.546;19.254;2022-12-16T07:18:55;12.60;;;1.95;;
74620;SDS011;64861;47.546;19.254;2022-12-16T07:21:39;9.32;;;2.35;;
74620;SDS011;64861;47.546;19.254;2022-12-16T07:24:23;4.82;;;1.88;;
74620;SDS011;64861;47.546;19.254;2022-12-16T07:27:07;5.68;;;1.65;;
74620;SDS011;64861;47.546;19.254;2022-12-16T07:29:51;6.95;;;1.75;;
74620;SDS011;64861;47.546;19.254;2022-12-16T07:32:35;6.82;;;2.10;;
74620;SDS011;64861;47.546;19.254;2022-12-16T07:35:19;4.63;;;2.03;;
74620;SDS011;64861;47.546;19.254;2022-12-16T07:38:03;6.30;;;2.05;;
74620;SDS011;64861;47.546;19.254;2022-12-16T07:40:47;5.15;;;2.08;;
74620;SDS011;64861;47.546;19.254;2022-12-16T07:43:31;4.60;;;1.95;;
74620;SDS011;64861;47.546;19.254;2022-12-16T07:46:15;6.03;;;1.88;;
74620;SDS011;64861;47.546;19.254;2022-12-16T07:48:59;3.97;;;1.98;;
74620;SDS011;64861;47.546;19.254;2022-12-16T07:51:43;5.60;;;2.00;;
74620;SDS011;64861;47.546;19.254;2022-12-16T07:54:27;4.28;;;1.70;;
74620;SDS011;64861;47.546;19.254;2022-12-16T07:57:11;6.93;;;1.85;;
74620;SDS011;64861;47.546;19.254;2022-12-16T07:59:55;5.45;;;2.28;;
74620;SDS011;64861;47.546;19.254;2022-12-16T08:02:39;4.95;;;2.05;;
74620;SDS011;64861;47.546;19.254;2022-12-16T08:05:23;5.47;;;1.95;;
74620;SDS011;64861;47.546;19.254;2022-12-16T08:08:20;3.88;;;1.90;;
74620;SDS011;64861;47.546;19.254;2022-12-16T08:11:05;3.92;;;1.63;;
74620;SDS011;64861;47.546;19.254;2022-12-16T08:13:49;4.90;;;1.90;;
74620;SDS011;64861;47.546;19.254;2022-12-16T08:16:33;6.15;;;1.90;;
74620;SDS011;64861;47.546;19.254;2022-12-16T08:19:17;5.82;;;1.88;;
74620;SDS011;64861;47.546;19.254;2022-12-16T08:22:01;4.93;;;1.77;;
74620;SDS011;64861;47.546;19.254;2022-12-16T08:24:45;3.72;;;1.98;;
74620;SDS011;64861;47.546;19.254;2022-12-16T08:27:29;6.68;;;2.10;;
74620;SDS011;64861;47.546;19.254;2022-12-16T08:30:13;4.07;;;1.90;;
74620;SDS011;64861;47.546;19.254;2022-12-16T08:32:57;7.63;;;1.63;;
74620;SDS011;64861;47.546;19.254;2022-12-16T08:35:41;4.68;;;1.85;;
74620;SDS011;64861;47.546;19.254;2022-12-16T08:38:25;9.43;;;2.30;;
74620;SDS011;64861;47.546;19.254;2022-12-16T08:41:09;8.82;;;2.20;;
74620;SDS011;64861;47.546;19.254;2022-12-16T08:43:53;5.35;;;1.90;;
74620;SDS011;64861;47.546;19.254;2022-12-16T08:46:57;3.95;;;1.98;;
74620;SDS011;64861;47.546;19.254;2022-12-16T08:49:41;4.88;;;1.92;;
74620;SDS011;64861;47.546;19.254;2022-12-16T08:52:25;9.30;;;2.00;;
74620;SDS011;64861;47.546;19.254;2022-12-16T08:57:53;8.55;;;2.03;;
74620;SDS011;64861;47.546;19.254;2022-12-16T09:00:38;8.60;;;2.08;;
74620;SDS011;64861;47.546;19.254;2022-12-16T09:03:22;5.25;;;1.88;;
74620;SDS011;64861;47.546;19.254;2022-12-16T09:06:06;5.93;;;2.20;;
74620;SDS011;64861;47.546;19.254;2022-12-16T09:08:54;8.50;;;2.13;;
74620;SDS011;64861;47.546;19.254;2022-12-16T09:11:39;6.25;;;2.10;;
74620;SDS011;64861;47.546;19.254;2022-12-16T09:14:23;7.20;;;2.33;;
74620;SDS011;64861;47.546;19.254;2022-12-16T09:17:07;7.05;;;1.83;;
74620;SDS011;64861;47.546;19.254;2022-12-16T09:19:51;7.90;;;2.05;;
74620;SDS011;64861;47.546;19.254;2022-12-16T09:22:35;6.78;;;2.10;;
74620;SDS011;64861;47.546;19.254;2022-12-16T09:25:19;9.68;;;2.10;;
74620;SDS011;64861;47.546;19.254;2022-12-16T09:28:03;4.00;;;1.85;;
74620;SDS011;64861;47.546;19.254;2022-12-16T09:30:47;5.65;;;2.40;;
74620;SDS011;64861;47.546;19.254;2022-12-16T09:33:31;7.20;;;2.25;;
74620;SDS011;64861;47.546;19.254;2022-12-16T09:36:15;9.75;;;2.63;;
74620;SDS011;64861;47.546;19.254;2022-12-16T09:38:59;6.50;;;2.10;;
74620;SDS011;64861;47.546;19.254;2022-12-16T09:41:44;7.35;;;2.47;;
74620;SDS011;64861;47.546;19.254;2022-12-16T09:50:36;6.35;;;2.47;;
74620;SDS011;64861;47.546;19.254;2022-12-16T09:53:24;5.78;;;2.60;;
74620;SDS011;64861;47.546;19.254;2022-12-16T09:56:18;8.18;;;2.60;;
74620;SDS011;64861;47.546;19.254;2022-12-16T09:59:12;6.00;;;2.33;;
74620;SDS011;64861;47.546;19.254;2022-12-16T10:01:58;6.20;;;2.58;;
74620;SDS011;64861;47.546;19.254;2022-12-16T10:04:44;5.75;;;2.40;;
74620;SDS011;64861;47.546;19.254;2022-12-16T10:07:33;7.07;;;2.63;;
74620;SDS011;64861;47.546;19.254;2022-12-16T10:10:27;8.30;;;2.40;;
74620;SDS011;64861;47.546;19.254;2022-12-16T10:13:36;7.97;;;2.88;;
74620;SDS011;64861;47.546;19.254;2022-12-16T10:22:50;6.15;;;2.67;;
74620;SDS011;64861;47.546;19.254;2022-12-16T10:28:51;8.30;;;2.60;;
74620;SDS011;64861;47.546;19.254;2022-12-16T10:31:42;5.13;;;2.28;;
74620;SDS011;64861;47.546;19.254;2022-12-16T10:34:27;8.52;;;2.72;;
74620;SDS011;64861;47.546;19.254;2022-12-16T10:37:15;11.50;;;2.70;;
74620;SDS011;64861;47.546;19.254;2022-12-16T10:40:12;6.03;;;2.70;;
74620;SDS011;64861;47.546;19.254;2022-12-16T10:43:01;8.13;;;2.92;;
74620;SDS011;64861;47.546;19.254;2022-12-16T10:45:50;7.45;;;3.17;;
74620;SDS011;64861;47.546;19.254;2022-12-16T10:48:36;5.80;;;2.85;;
74620;SDS011;64861;47.546;19.254;2022-12-16T10:51:21;6.55;;;2.63;;
74620;SDS011;64861;47.546;19.254;2022-12-16T11:03:27;6.57;;;2.95;;
74620;SDS011;64861;47.546;19.254;2022-12-16T11:09:26;5.40;;;2.78;;
74620;SDS011;64861;47.546;19.254;2022-12-16T11:18:14;6.32;;;3.28;;
74620;SDS011;64861;47.546;19.254;2022-12-16T11:21:09;7.90;;;3.17;;
74620;SDS011;64861;47.546;19.254;2022-12-16T11:26:57;10.43;;;3.17;;
74620;SDS011;64861;47.546;19.254;2022-12-16T11:30:02;6.55;;;3.42;;
74620;SDS011;64861;47.546;19.254;2022-12-16T11:33:03;10.27;;;3.47;;
74620;SDS011;64861;47.546;19.254;2022-12-16T11:35:55;7.65;;;3.60;;
74620;SDS011;64861;47.546;19.254;2022-12-16T11:38:48;7.05;;;3.40;;
74620;SDS011;64861;47.546;19.254;2022-12-16T11:44:22;10.00;;;3.60;;
74620;SDS011;64861;47.546;19.254;2022-12-16T11:47:53;6.90;;;3.13;;
74620;SDS011;64861;47.546;19.254;2022-12-16T11:50:40;9.27;;;3.95;;
74620;SDS011;64861;47.546;19.254;2022-12-16T11:56:38;8.35;;;3.47;;
74620;SDS011;64861;47.546;19.254;2022-12-16T11:59:38;8.13;;;3.72;;
74620;SDS011;64861;47.546;19.254;2022-12-16T12:02:32;9.70;;;3.80;;
74620;SDS011;64861;47.546;19.254;2022-12-16T12:05:23;6.43;;;3.63;;
74620;SDS011;64861;47.546;19.254;2022-12-16T12:08:27;8.30;;;4.18;;
74620;SDS011;64861;47.546;19.254;2022-12-16T12:11:18;6.90;;;3.47;;
74620;SDS011;64861;47.546;19.254;2022-12-16T12:23:06;8.00;;;3.85;;
74620;SDS011;64861;47.546;19.254;2022-12-16T12:29:18;9.85;;;4.05;;
74620;SDS011;64861;47.546;19.254;2022-12-16T12:38:14;8.23;;;3.88;;
74620;SDS011;64861;47.546;19.254;2022-12-16T12:41:14;7.28;;;4.07;;
74620;SDS011;64861;47.546;19.254;2022-12-16T12:47:28;8.35;;;3.90;;
74620;SDS011;64861;47.546;19.254;2022-12-16T12:50:21;9.20;;;4.03;;
74620;SDS011;64861;47.546;19.254;2022-12-16T12:53:25;10.55;;;4.60;;
74620;SDS011;64861;47.546;19.254;2022-12-16T12:59:21;8.77;;;4.20;;
74620;SDS011;64861;47.546;19.254;2022-12-16T13:02:13;8.32;;;4.68;;
74620;SDS011;64861;47.546;19.254;2022-12-16T13:05:01;8.75;;;4.18;;
74620;SDS011;64861;47.546;19.254;2022-12-16T13:07:45;8.13;;;4.45;;
74620;SDS011;64861;47.546;19.254;2022-12-16T13:10:31;6.68;;;4.03;;
74620;SDS011;64861;47.546;19.254;2022-12-16T13:16:01;9.15;;;4.30;;
74620;SDS011;64861;47.546;19.254;2022-12-16T13:18:47;7.75;;;3.92;;
74620;SDS011;64861;47.546;19.254;2022-12-16T13:21:51;7.00;;;4.30;;
74620;SDS011;64861;47.546;19.254;2022-12-16T13:24:40;7.47;;;4.30;;
74620;SDS011;64861;47.546;19.254;2022-12-16T13:27:27;16.35;;;4.22;;
74620;SDS011;64861;47.546;19.254;2022-12-16T13:32:59;6.82;;;3.80;;
74620;SDS011;64861;47.546;19.254;2022-12-16T13:35:51;9.02;;;4.07;;
74620;SDS011;64861;47.546;19.254;2022-12-16T13:38:38;9.60;;;4.82;;
74620;SDS011;64861;47.546;19.254;2022-12-16T13:48:26;10.95;;;4.57;;
74620;SDS011;64861;47.546;19.254;2022-12-16T13:50:39;8.37;;;4.13;;
74620;SDS011;64861;47.546;19.254;2022-12-16T13:53:26;10.85;;;4.47;;
74620;SDS011;64861;47.546;19.254;2022-12-16T13:56:13;14.00;;;4.25;;
74620;SDS011;64861;47.546;19.254;2022-12-16T13:59:03;12.35;;;4.72;;
74620;SDS011;64861;47.546;19.254;2022-12-16T14:01:57;13.40;;;4.80;;
74620;SDS011;64861;47.546;19.254;2022-12-16T14:04:55;14.02;;;3.78;;
74620;SDS011;64861;47.546;19.254;2022-12-16T14:07:39;8.15;;;4.18;;
74620;SDS011;64861;47.546;19.254;2022-12-16T14:10:26;10.23;;;4.35;;
74620;SDS011;64861;47.546;19.254;2022-12-16T14:25:28;19.25;;;5.00;;
74620;SDS011;64861;47.546;19.254;2022-12-16T14:31:24;13.43;;;4.47;;
74620;SDS011;64861;47.546;19.254;2022-12-16T14:34:16;10.00;;;4.72;;
74620;SDS011;64861;47.546;19.254;2022-12-16T14:37:06;15.95;;;4.72;;
74620;SDS011;64861;47.546;19.254;2022-12-16T14:39:57;14.73;;;4.63;;
74620;SDS011;64861;47.546;19.254;2022-12-16T14:42:41;10.82;;;4.70;;
74620;SDS011;64861;47.546;19.254;2022-12-16T14:45:36;11.57;;;4.70;;
74620;SDS011;64861;47.546;19.254;2022-12-16T14:48:25;10.20;;;4.00;;
74620;SDS011;64861;47.546;19.254;2022-12-16T14:51:21;10.20;;;4.07;;
74620;SDS011;64861;47.546;19.254;2022-12-16T14:57:22;9.18;;;4.75;;
74620;SDS011;64861;47.546;19.254;2022-12-16T15:00:12;8.88;;;4.35;;
74620;SDS011;64861;47.546;19.254;2022-12-16T15:05:54;9.82;;;4.97;;
74620;SDS011;64861;47.546;19.254;2022-12-16T15:08:49;9.32;;;4.80;;
74620;SDS011;64861;47.546;19.254;2022-12-16T15:11:44;11.75;;;4.75;;
74620;SDS011;64861;47.546;19.254;2022-12-16T15:14:31;10.90;;;4.68;;
74620;SDS011;64861;47.546;19.254;2022-12-16T15:18:03;7.53;;;4.35;;
74620;SDS011;64861;47.546;19.254;2022-12-16T15:20:26;9.23;;;4.55;;
74620;SDS011;64861;47.546;19.254;2022-12-16T15:23:20;15.15;;;4.40;;
74620;SDS011;64861;47.546;19.254;2022-12-16T15:26:18;10.55;;;4.30;;
74620;SDS011;64861;47.546;19.254;2022-12-16T15:29:27;9.07;;;3.83;;
74620;SDS011;64861;47.546;19.254;2022-12-16T15:38:15;10.88;;;4.25;;
74620;SDS011;64861;47.546;19.254;2022-12-16T15:41:05;11.07;;;4.05;;
74620;SDS011;64861;47.546;19.254;2022-12-16T15:43:49;16.95;;;5.03;;
74620;SDS011;64861;47.546;19.254;2022-12-16T15:46:34;13.32;;;4.38;;
74620;SDS011;64861;47.546;19.254;2022-12-16T15:52:29;16.50;;;4.25;;
74620;SDS011;64861;47.546;19.254;2022-12-16T15:55:24;15.43;;;4.75;;
74620;SDS011;64861;47.546;19.254;2022-12-16T15:58:26;13.05;;;5.28;;
74620;SDS011;64861;47.546;19.254;2022-12-16T16:01:10;17.40;;;4.93;;
74620;SDS011;64861;47.546;19.254;2022-12-16T16:03:56;16.33;;;5.07;;
74620;SDS011;64861;47.546;19.254;2022-12-16T16:06:43;23.75;;;5.07;;
74620;SDS011;64861;47.546;19.254;2022-12-16T16:09:30;30.33;;;6.28;;
74620;SDS011;64861;47.546;19.254;2022-12-16T16:12:16;54.75;;;7.15;;
74620;SDS011;64861;47.546;19.254;2022-12-16T16:15:03;73.57;;;7.65;;
74620;SDS011;64861;47.546;19.254;2022-12-16T16:17:49;75.05;;;7.15;;
74620;SDS011;64861;47.546;19.254;2022-12-16T16:20:38;71.25;;;7.95;;
74620;SDS011;64861;47.546;19.254;2022-12-16T16:23:23;75.63;;;7.45;;
74620;SDS011;64861;47.546;19.254;2022-12-16T16:26:10;60.28;;;7.90;;
74620;SDS011;64861;47.546;19.254;2022-12-16T16:28:56;48.78;;;7.03;;
74620;SDS011;64861;47.546;19.254;2022-12-16T16:31:40;58.60;;;7.28;;
74620;SDS011;64861;47.546;19.254;2022-12-16T16:34:24;58.78;;;7.18;;
74620;SDS011;64861;47.546;19.254;2022-12-16T16:37:11;55.92;;;7.32;;
74620;SDS011;64861;47.546;19.254;2022-12-16T16:39:57;56.67;;;7.95;;
74620;SDS011;64861;47.546;19.254;2022-12-16T16:42:41;57.47;;;7.38;;
74620;SDS011;64861;47.546;19.254;2022-12-16T16:45:25;56.95;;;7.05;;
74620;SDS011;64861;47.546;19.254;2022-12-16T16:48:16;54.40;;;7.05;;
74620;SDS011;64861;47.546;19.254;2022-12-16T16:51:01;166.10;;;13.43;;
74620;SDS011;64861;47.546;19.254;2022-12-16T16:53:46;100.63;;;9.18;;
74620;SDS011;64861;47.546;19.254;2022-12-16T16:56:34;87.43;;;10.00;;
74620;SDS011;64861;47.546;19.254;2022-12-16T16:59:21;80.25;;;9.80;;
74620;SDS011;64861;47.546;19.254;2022-12-16T17:02:16;82.68;;;9.10;;
74620;SDS011;64861;47.546;19.254;2022-12-16T17:05:03;77.13;;;9.60;;
74620;SDS011;64861;47.546;19.254;2022-12-16T17:07:47;68.28;;;9.35;;
74620;SDS011;64861;47.546;19.254;2022-12-16T17:10:31;68.07;;;8.18;;
74620;SDS011;64861;47.546;19.254;2022-12-16T17:13:15;58.92;;;7.88;;
74620;SDS011;64861;47.546;19.254;2022-12-16T17:15:59;56.42;;;7.45;;
74620;SDS011;64861;47.546;19.254;2022-12-16T17:18:43;54.53;;;8.18;;
74620;SDS011;64861;47.546;19.254;2022-12-16T17:21:27;49.42;;;7.10;;
74620;SDS011;64861;47.546;19.254;2022-12-16T17:24:12;59.15;;;8.05;;
74620;SDS011;64861;47.546;19.254;2022-12-16T17:26:56;52.60;;;7.82;;
74620;SDS011;64861;47.546;19.254;2022-12-16T17:29:40;47.60;;;7.53;;
74620;SDS011;64861;47.546;19.254;2022-12-16T17:32:24;42.33;;;6.93;;
74620;SDS011;64861;47.546;19.254;2022-12-16T17:35:09;46.45;;;7.97;;
74620;SDS011;64861;47.546;19.254;2022-12-16T17:37:54;45.25;;;7.13;;
74620;SDS011;64861;47.546;19.254;2022-12-16T17:40:38;36.88;;;7.15;;
74620;SDS011;64861;47.546;19.254;2022-12-16T17:43:22;34.42;;;7.18;;
74620;SDS011;64861;47.546;19.254;2022-12-16T17:46:08;37.05;;;7.32;;
74620;SDS011;64861;47.546;19.254;2022-12-16T17:48:54;34.50;;;7.43;;
74620;SDS011;64861;47.546;19.254;2022-12-16T17:51:39;39.85;;;7.72;;
74620;SDS011;64861;47.546;19.254;2022-12-16T17:54:24;29.33;;;7.03;;
74620;SDS011;64861;47.546;19.254;2022-12-16T17:57:08;36.65;;;7.32;;
74620;SDS011;64861;47.546;19.254;2022-12-16T17:59:52;38.03;;;6.72;;
74620;SDS011;64861;47.546;19.254;2022-12-16T18:02:36;34.08;;;6.90;;
74620;SDS011;64861;47.546;19.254;2022-12-16T18:05:21;27.33;;;6.18;;
74620;SDS011;64861;47.546;19.254;2022-12-16T18:08:05;27.70;;;6.85;;
74620;SDS011;64861;47.546;19.254;2022-12-16T18:10:52;34.10;;;7.15;;
74620;SDS011;64861;47.546;19.254;2022-12-16T18:13:37;30.90;;;6.78;;
74620;SDS011;64861;47.546;19.254;2022-12-16T18:16:21;25.20;;;7.05;;
74620;SDS011;64861;47.546;19.254;2022-12-16T18:19:05;47.67;;;7.63;;
74620;SDS011;64861;47.546;19.254;2022-12-16T18:21:49;30.38;;;6.88;;
74620;SDS011;64861;47.546;19.254;2022-12-16T18:24:33;24.15;;;7.07;;
74620;SDS011;64861;47.546;19.254;2022-12-16T18:27:17;23.05;;;7.15;;